< < Back
Terminal Aerodrome Forecast


Current Version              Previous Versions:   1  2  3  4  5  6  7  8  9  

Terminal Aerodrome Forecast

440
FTUS44 KBMX 261700
TAFANB
TAF
KANB 261738Z 2618/2718 27004KT P6SM SKC
     FM262130 21007KT P6SM BKN150
     FM270300 19006KT P6SM BKN070
     FM270700 25008KT P6SM BKN060
     FM271400 32010G20KT P6SM BKN025=

Latest METAR

294
SAUS70 KWBC 271100 RRM
MTRANB
METAR KANB 271053Z AUTO 27005KT 10SM FEW048 02/M02 A3023 RMK AO2 SLP243
T00171017


USA.gov is the U.S. government's official web portal to all federal, state and local government web resources and services.